Robijn — PBEJ — position and weather

sailwx.info

Track history (hours):
 
Tides and Currents Weather Stations Pressure Air Temp Water Temp Dewpoint Dewpoint Depression Visibility Wind Speed Wind Dir Waves Ship Positions

Robijn

Last reported at 2017-Nov-19 03:37 UTC. Time now 2017-Nov-19 04:57 UTC.
Position N 41°02' W 009°48'.

Length 90 m; draft 5.3 m.

Type: Cargo ship. MMSI: 245909000.

Date/timePositionNaut miles runAvg speedWind from/ knotsBaromVisibWave heightAir tempDewpointWater temp
2017-Nov-19 03:37N 41°02' W 009°48'310.7
2017-Nov-19 03:22N 40°60' W 009°48'3610.5
2017-Nov-18 23:55N 40°23' W 009°50'610.7
2017-Nov-18 23:21N 40°17' W 009°50'410.5
2017-Nov-18 23:00N 40°14' W 009°49'610.6
2017-Nov-18 22:26N 40°08' W 009°49'510.5
2017-Nov-18 22:00N 40°03' W 009°49'710.4
2017-Nov-18 21:23N 39°57' W 009°49'410.4
2017-Nov-18 21:00N 39°53' W 009°49'710.0
2017-Nov-18 20:18N 39°46' W 009°49'310.0
2017-Nov-18 20:00N 39°43' W 009°49'510.2
2017-Nov-18 19:30N 39°38' W 009°49'510.3
2017-Nov-18 19:00N 39°33' W 009°49'510.2
2017-Nov-18 18:30N 39°27' W 009°49'510.2
2017-Nov-18 18:00N 39°22' W 009°49'510.6
2017-Nov-18 17:30N 39°17' W 009°49'510.7
2017-Nov-18 17:00N 39°12' W 009°49'510.2
2017-Nov-18 16:30N 39°07' W 009°50'510.2
2017-Nov-18 16:00N 39°02' W 009°51'510.1
2017-Nov-18 15:30N 38°57' W 009°51'510.2
2017-Nov-18 15:00N 38°51' W 009°51'510.4
2017-Nov-18 14:30N 38°46' W 009°51'510.2
2017-Nov-18 14:00N 38°41' W 009°50'510.5
2017-Nov-18 13:30N 38°36' W 009°48'510.4
2017-Nov-18 13:01N 38°31' W 009°47'510.0
2017-Nov-18 12:30N 38°26' W 009°45'510.1
2017-Nov-18 12:00N 38°21' W 009°44'510.2
2017-Nov-18 11:31N 38°16' W 009°42'510.3
2017-Nov-18 11:00N 38°11' W 009°41'510.5
2017-Nov-18 10:30N 38°06' W 009°39'510.6
2017-Nov-18 10:00N 38°01' W 009°37'510.6
2017-Nov-18 09:31N 37°56' W 009°36'510.6
2017-Nov-18 09:00N 37°51' W 009°34'510.6
2017-Nov-18 08:30N 37°46' W 009°32'510.6
2017-Nov-18 08:01N 37°41' W 009°31'510.4
2017-Nov-18 07:31N 37°36' W 009°29'510.4
2017-Nov-18 07:01N 37°30' W 009°28'510.4
2017-Nov-18 06:31N 37°25' W 009°27'510.4
2017-Nov-18 06:01N 37°20' W 009°25'510.5
2017-Nov-18 05:30N 37°15' W 009°24'510.3
2017-Nov-18 05:01N 37°10' W 009°23'510.1
2017-Nov-18 04:30N 37°05' W 009°21'610.7
2017-Nov-18 03:58N 36°59' W 009°20'510.5
2017-Nov-18 03:28N 36°54' W 009°19'510.6
2017-Nov-18 02:57N 36°50' W 009°14'611.1
2017-Nov-18 02:27N 36°46' W 009°10'510.7
2017-Nov-18 02:01N 36°44' W 009°04'611.0
2017-Nov-18 01:30N 36°43' W 008°58'510.8
2017-Nov-18 01:00N 36°41' W 008°51'1410.8
2017-Nov-17 23:43N 36°37' W 008°34'3710.7
2017-Nov-17 20:15N 36°25' W 007°51'11510.6
2017-Nov-17 09:25N 35°58' W 005°32'4 9.5
2017-Nov-17 08:59N 35°60' W 005°27'4 9.2
2017-Nov-17 08:30N 36°01' W 005°22'5 9.1
2017-Nov-17 08:01N 36°02' W 005°17'  
2017-Nov-12 12:33N 36°33' E 014°19'1 9.9
2017-Nov-12 12:28N 36°33' E 014°20'4 9.7
2017-Nov-12 12:00N 36°30' E 014°25'510.1
2017-Nov-12 11:30N 36°28' E 014°30'510.0
2017-Nov-12 10:59N 36°25' E 014°35'510.0
2017-Nov-12 10:29N 36°22' E 014°41'  
Track history (hours):
 
Tides and Currents Weather Stations Pressure Air Temp Water Temp Dewpoint Dewpoint Depression Visibility Wind Speed Wind Dir Waves Ship Positions

Robijn

Last reported at 2017-Nov-19 03:37 UTC. Time now 2017-Nov-19 04:57 UTC.
Position N 41°02' W 009°48'.

Length 90 m; draft 5.3 m.

Type: Cargo ship. MMSI: 245909000.

Date/timePositionNaut miles runAvg speedWind from/ knotsBaromVisibWave heightAir tempDewpointWater temp
2017-Nov-19 03:37N 41°02' W 009°48'310.7
2017-Nov-19 03:22N 40°60' W 009°48'3610.5
2017-Nov-18 23:55N 40°23' W 009°50'610.7
2017-Nov-18 23:21N 40°17' W 009°50'410.5
2017-Nov-18 23:00N 40°14' W 009°49'610.6
2017-Nov-18 22:26N 40°08' W 009°49'510.5
2017-Nov-18 22:00N 40°03' W 009°49'710.4
2017-Nov-18 21:23N 39°57' W 009°49'410.4
2017-Nov-18 21:00N 39°53' W 009°49'710.0
2017-Nov-18 20:18N 39°46' W 009°49'310.0
2017-Nov-18 20:00N 39°43' W 009°49'510.2
2017-Nov-18 19:30N 39°38' W 009°49'510.3
2017-Nov-18 19:00N 39°33' W 009°49'510.2
2017-Nov-18 18:30N 39°27' W 009°49'510.2
2017-Nov-18 18:00N 39°22' W 009°49'510.6
2017-Nov-18 17:30N 39°17' W 009°49'510.7
2017-Nov-18 17:00N 39°12' W 009°49'510.2
2017-Nov-18 16:30N 39°07' W 009°50'510.2
2017-Nov-18 16:00N 39°02' W 009°51'510.1
2017-Nov-18 15:30N 38°57' W 009°51'510.2
2017-Nov-18 15:00N 38°51' W 009°51'510.4
2017-Nov-18 14:30N 38°46' W 009°51'510.2
2017-Nov-18 14:00N 38°41' W 009°50'510.5
2017-Nov-18 13:30N 38°36' W 009°48'510.4
2017-Nov-18 13:01N 38°31' W 009°47'510.0
2017-Nov-18 12:30N 38°26' W 009°45'510.1
2017-Nov-18 12:00N 38°21' W 009°44'510.2
2017-Nov-18 11:31N 38°16' W 009°42'510.3
2017-Nov-18 11:00N 38°11' W 009°41'510.5
2017-Nov-18 10:30N 38°06' W 009°39'510.6
2017-Nov-18 10:00N 38°01' W 009°37'510.6
2017-Nov-18 09:31N 37°56' W 009°36'510.6
2017-Nov-18 09:00N 37°51' W 009°34'510.6
2017-Nov-18 08:30N 37°46' W 009°32'510.6
2017-Nov-18 08:01N 37°41' W 009°31'510.4
2017-Nov-18 07:31N 37°36' W 009°29'510.4
2017-Nov-18 07:01N 37°30' W 009°28'510.4
2017-Nov-18 06:31N 37°25' W 009°27'510.4
2017-Nov-18 06:01N 37°20' W 009°25'510.5
2017-Nov-18 05:30N 37°15' W 009°24'510.3
2017-Nov-18 05:01N 37°10' W 009°23'510.1
2017-Nov-18 04:30N 37°05' W 009°21'610.7
2017-Nov-18 03:58N 36°59' W 009°20'510.5
2017-Nov-18 03:28N 36°54' W 009°19'510.6
2017-Nov-18 02:57N 36°50' W 009°14'611.1
2017-Nov-18 02:27N 36°46' W 009°10'510.7
2017-Nov-18 02:01N 36°44' W 009°04'611.0
2017-Nov-18 01:30N 36°43' W 008°58'510.8
2017-Nov-18 01:00N 36°41' W 008°51'1410.8
2017-Nov-17 23:43N 36°37' W 008°34'3710.7
2017-Nov-17 20:15N 36°25' W 007°51'11510.6
2017-Nov-17 09:25N 35°58' W 005°32'4 9.5
2017-Nov-17 08:59N 35°60' W 005°27'4 9.2
2017-Nov-17 08:30N 36°01' W 005°22'5 9.1
2017-Nov-17 08:01N 36°02' W 005°17'  
2017-Nov-12 12:33N 36°33' E 014°19'1 9.9
2017-Nov-12 12:28N 36°33' E 014°20'4 9.7
2017-Nov-12 12:00N 36°30' E 014°25'510.1
2017-Nov-12 11:30N 36°28' E 014°30'510.0
2017-Nov-12 10:59N 36°25' E 014°35'510.0
2017-Nov-12 10:29N 36°22' E 014°41'  

Dump ship's entire track history